sensor_id;sensor_type;location;lat;lon;timestamp;pressure;altitude;pressure_sealevel;temperature;humidity
63556;BME280;49700;48.072;7.800;2022-11-30T00:00:47;99757.16;;;8.26;nan
63556;BME280;49700;48.072;7.800;2022-11-30T00:03:12;99754.72;;;8.23;nan
63556;BME280;49700;48.072;7.800;2022-11-30T00:05:38;99755.72;;;8.20;nan
63556;BME280;49700;48.072;7.800;2022-11-30T00:08:03;99753.94;;;8.20;nan
63556;BME280;49700;48.072;7.800;2022-11-30T00:10:29;99751.25;;;8.22;nan
63556;BME280;49700;48.072;7.800;2022-11-30T00:12:54;99756.44;;;8.24;nan
63556;BME280;49700;48.072;7.800;2022-11-30T00:15:19;99751.88;;;8.27;nan
63556;BME280;49700;48.072;7.800;2022-11-30T00:17:46;99747.41;;;8.29;nan
63556;BME280;49700;48.072;7.800;2022-11-30T00:20:13;99751.63;;;8.32;nan
63556;BME280;49700;48.072;7.800;2022-11-30T00:22:38;99755.78;;;8.36;nan
63556;BME280;49700;48.072;7.800;2022-11-30T00:25:04;99748.75;;;8.36;nan
63556;BME280;49700;48.072;7.800;2022-11-30T00:27:30;99756.72;;;8.35;nan
63556;BME280;49700;48.072;7.800;2022-11-30T00:29:57;99747.91;;;8.36;nan
63556;BME280;49700;48.072;7.800;2022-11-30T00:32:24;99748.09;;;8.33;nan
63556;BME280;49700;48.072;7.800;2022-11-30T00:34:49;99749.88;;;8.32;nan
63556;BME280;49700;48.072;7.800;2022-11-30T00:37:15;99748.25;;;8.30;nan
63556;BME280;49700;48.072;7.800;2022-11-30T00:39:41;99745.69;;;8.28;nan
63556;BME280;49700;48.072;7.800;2022-11-30T00:42:06;99749.25;;;8.27;nan
63556;BME280;49700;48.072;7.800;2022-11-30T00:44:32;99748.41;;;8.27;nan
63556;BME280;49700;48.072;7.800;2022-11-30T00:46:57;99745.25;;;8.20;nan
63556;BME280;49700;48.072;7.800;2022-11-30T00:49:24;99750.66;;;8.17;nan
63556;BME280;49700;48.072;7.800;2022-11-30T00:51:51;99757.72;;;8.15;nan
63556;BME280;49700;48.072;7.800;2022-11-30T00:54:16;99750.88;;;8.12;nan
63556;BME280;49700;48.072;7.800;2022-11-30T00:56:42;99757.81;;;8.13;nan
63556;BME280;49700;48.072;7.800;2022-11-30T00:59:07;99766.41;;;8.15;nan
63556;BME280;49700;48.072;7.800;2022-11-30T01:01:33;99766.28;;;8.18;nan
63556;BME280;49700;48.072;7.800;2022-11-30T01:04:00;99760.09;;;8.19;nan
63556;BME280;49700;48.072;7.800;2022-11-30T01:06:26;99765.13;;;8.24;nan
63556;BME280;49700;48.072;7.800;2022-11-30T01:08:52;99764.28;;;8.24;nan
63556;BME280;49700;48.072;7.800;2022-11-30T01:11:26;99763.25;;;8.26;nan
63556;BME280;49700;48.072;7.800;2022-11-30T01:13:52;99762.34;;;8.27;nan
63556;BME280;49700;48.072;7.800;2022-11-30T01:16:23;99763.09;;;8.29;nan
63556;BME280;49700;48.072;7.800;2022-11-30T01:18:50;99760.34;;;8.32;nan
63556;BME280;49700;48.072;7.800;2022-11-30T01:21:19;99762.00;;;8.33;nan
63556;BME280;49700;48.072;7.800;2022-11-30T01:23:45;99761.00;;;8.36;nan
63556;BME280;49700;48.072;7.800;2022-11-30T01:26:11;99764.41;;;8.38;nan
63556;BME280;49700;48.072;7.800;2022-11-30T01:28:37;99769.69;;;8.36;nan
63556;BME280;49700;48.072;7.800;2022-11-30T01:31:06;99767.25;;;8.33;nan
63556;BME280;49700;48.072;7.800;2022-11-30T01:33:32;99765.72;;;8.29;nan
63556;BME280;49700;48.072;7.800;2022-11-30T01:36:06;99768.56;;;8.25;nan
63556;BME280;49700;48.072;7.800;2022-11-30T01:38:35;99769.50;;;8.24;nan
63556;BME280;49700;48.072;7.800;2022-11-30T01:41:02;99769.50;;;8.24;nan
63556;BME280;49700;48.072;7.800;2022-11-30T01:43:52;99766.13;;;8.22;nan
63556;BME280;49700;48.072;7.800;2022-11-30T01:46:37;99759.34;;;8.17;nan
63556;BME280;49700;48.072;7.800;2022-11-30T01:51:41;99766.28;;;8.18;nan
63556;BME280;49700;48.072;7.800;2022-11-30T01:54:10;99763.56;;;8.20;nan
63556;BME280;49700;48.072;7.800;2022-11-30T01:56:41;99762.66;;;8.21;nan
63556;BME280;49700;48.072;7.800;2022-11-30T01:59:09;99761.66;;;8.24;nan
63556;BME280;49700;48.072;7.800;2022-11-30T02:01:35;99761.56;;;8.25;nan
63556;BME280;49700;48.072;7.800;2022-11-30T02:04:06;99771.03;;;8.28;nan
63556;BME280;49700;48.072;7.800;2022-11-30T02:06:33;99767.41;;;8.30;nan
63556;BME280;49700;48.072;7.800;2022-11-30T02:08:58;99760.41;;;8.31;nan
63556;BME280;49700;48.072;7.800;2022-11-30T02:11:25;99761.34;;;8.30;nan
63556;BME280;49700;48.072;7.800;2022-11-30T02:14:00;99767.47;;;8.29;nan
63556;BME280;49700;48.072;7.800;2022-11-30T02:16:38;99764.19;;;8.25;nan
63556;BME280;49700;48.072;7.800;2022-11-30T02:30:36;99756.03;;;8.14;nan
63556;BME280;49700;48.072;7.800;2022-11-30T02:33:09;99757.72;;;8.15;nan
63556;BME280;49700;48.072;7.800;2022-11-30T02:35:38;99763.78;;;8.15;nan
63556;BME280;49700;48.072;7.800;2022-11-30T02:38:05;99760.19;;;8.18;nan
63556;BME280;49700;48.072;7.800;2022-11-30T02:40:30;99764.41;;;8.20;nan
63556;BME280;49700;48.072;7.800;2022-11-30T02:42:58;99756.50;;;8.22;nan
63556;BME280;49700;48.072;7.800;2022-11-30T02:48:46;99756.50;;;8.22;nan
63556;BME280;49700;48.072;7.800;2022-11-30T02:51:17;99762.41;;;8.26;nan
63556;BME280;49700;48.072;7.800;2022-11-30T02:53:44;99756.16;;;8.28;nan
63556;BME280;49700;48.072;7.800;2022-11-30T02:56:11;99756.16;;;8.28;nan
63556;BME280;49700;48.072;7.800;2022-11-30T02:58:36;99757.94;;;8.28;nan
63556;BME280;49700;48.072;7.800;2022-11-30T03:01:02;99765.78;;;8.28;nan
63556;BME280;49700;48.072;7.800;2022-11-30T03:03:27;99765.03;;;8.26;nan
63556;BME280;49700;48.072;7.800;2022-11-30T03:05:52;99770.25;;;8.26;nan
63556;BME280;49700;48.072;7.800;2022-11-30T03:08:18;99770.19;;;8.27;nan
63556;BME280;49700;48.072;7.800;2022-11-30T03:10:43;99767.56;;;8.27;nan
63556;BME280;49700;48.072;7.800;2022-11-30T03:13:09;99766.72;;;8.27;nan
63556;BME280;49700;48.072;7.800;2022-11-30T03:15:34;99772.88;;;8.26;nan
63556;BME280;49700;48.072;7.800;2022-11-30T03:18:01;99769.41;;;8.25;nan
63556;BME280;49700;48.072;7.800;2022-11-30T03:20:27;99770.34;;;8.24;nan
63556;BME280;49700;48.072;7.800;2022-11-30T03:22:52;99776.41;;;8.25;nan
63556;BME280;49700;48.072;7.800;2022-11-30T03:25:17;99771.97;;;8.27;nan
63556;BME280;49700;48.072;7.800;2022-11-30T03:27:43;99774.41;;;8.30;nan
63556;BME280;49700;48.072;7.800;2022-11-30T03:30:09;99773.41;;;8.32;nan
63556;BME280;49700;48.072;7.800;2022-11-30T03:32:34;99781.09;;;8.35;nan
63556;BME280;49700;48.072;7.800;2022-11-30T03:34:59;99768.84;;;8.36;nan
63556;BME280;49700;48.072;7.800;2022-11-30T03:37:25;99773.16;;;8.37;nan
63556;BME280;49700;48.072;7.800;2022-11-30T03:39:50;99775.09;;;8.33;nan
63556;BME280;49700;48.072;7.800;2022-11-30T03:42:16;99776.03;;;8.32;nan
63556;BME280;49700;48.072;7.800;2022-11-30T03:44:41;99778.66;;;8.32;nan
63556;BME280;49700;48.072;7.800;2022-11-30T03:47:07;99776.09;;;8.31;nan
63556;BME280;49700;48.072;7.800;2022-11-30T03:49:32;99781.50;;;8.28;nan
63556;BME280;49700;48.072;7.800;2022-11-30T03:51:57;99781.50;;;8.28;nan
63556;BME280;49700;48.072;7.800;2022-11-30T03:54:23;99772.13;;;8.24;nan
63556;BME280;49700;48.072;7.800;2022-11-30T03:56:48;99773.97;;;8.22;nan
63556;BME280;49700;48.072;7.800;2022-11-30T03:59:13;99782.72;;;8.20;nan
63556;BME280;49700;48.072;7.800;2022-11-30T04:01:39;99782.72;;;8.20;nan
63556;BME280;49700;48.072;7.800;2022-11-30T04:04:05;99781.03;;;8.19;nan
63556;BME280;49700;48.072;7.800;2022-11-30T04:06:30;99776.75;;;8.18;nan
63556;BME280;49700;48.072;7.800;2022-11-30T04:08:56;99787.28;;;8.17;nan
63556;BME280;49700;48.072;7.800;2022-11-30T04:11:21;99789.13;;;8.15;nan
63556;BME280;49700;48.072;7.800;2022-11-30T04:13:47;99783.97;;;8.13;nan
63556;BME280;49700;48.072;7.800;2022-11-30T04:16:12;99788.38;;;8.13;nan
63556;BME280;49700;48.072;7.800;2022-11-30T04:18:38;99789.44;;;8.09;nan
63556;BME280;49700;48.072;7.800;2022-11-30T04:21:05;99789.59;;;8.06;nan
63556;BME280;49700;48.072;7.800;2022-11-30T04:23:34;99789.66;;;8.04;nan
63556;BME280;49700;48.072;7.800;2022-11-30T04:26:02;99784.53;;;8.03;nan
63556;BME280;49700;48.072;7.800;2022-11-30T04:28:28;99779.19;;;8.04;nan
63556;BME280;49700;48.072;7.800;2022-11-30T04:30:54;99781.66;;;8.07;nan
63556;BME280;49700;48.072;7.800;2022-11-30T04:33:19;99783.44;;;8.07;nan
63556;BME280;49700;48.072;7.800;2022-11-30T04:35:47;99785.97;;;8.08;nan
63556;BME280;49700;48.072;7.800;2022-11-30T04:38:14;99791.13;;;8.10;nan
63556;BME280;49700;48.072;7.800;2022-11-30T04:40:40;99784.03;;;8.12;nan
63556;BME280;49700;48.072;7.800;2022-11-30T04:43:06;99790.06;;;8.14;nan
63556;BME280;49700;48.072;7.800;2022-11-30T04:45:32;99781.25;;;8.15;nan
63556;BME280;49700;48.072;7.800;2022-11-30T04:47:57;99789.06;;;8.16;nan
63556;BME280;49700;48.072;7.800;2022-11-30T04:50:23;99790.72;;;8.17;nan
63556;BME280;49700;48.072;7.800;2022-11-30T04:52:48;99797.69;;;8.18;nan
63556;BME280;49700;48.072;7.800;2022-11-30T04:55:14;99795.91;;;8.19;nan
63556;BME280;49700;48.072;7.800;2022-11-30T04:57:41;99797.69;;;8.18;nan
63556;BME280;49700;48.072;7.800;2022-11-30T05:00:07;99789.97;;;8.15;nan
63556;BME280;49700;48.072;7.800;2022-11-30T05:02:32;99794.28;;;8.16;nan
63556;BME280;49700;48.072;7.800;2022-11-30T05:04:58;99798.69;;;8.16;nan
63556;BME280;49700;48.072;7.800;2022-11-30T05:07:23;99792.56;;;8.15;nan
63556;BME280;49700;48.072;7.800;2022-11-30T05:09:49;99792.72;;;8.12;nan
63556;BME280;49700;48.072;7.800;2022-11-30T05:12:14;99797.22;;;8.10;nan
63556;BME280;49700;48.072;7.800;2022-11-30T05:14:39;99793.72;;;8.10;nan
63556;BME280;49700;48.072;7.800;2022-11-30T05:17:07;99799.84;;;8.10;nan
63556;BME280;49700;48.072;7.800;2022-11-30T05:19:33;99802.44;;;8.10;nan
63556;BME280;49700;48.072;7.800;2022-11-30T05:21:58;99796.28;;;8.11;nan
63556;BME280;49700;48.072;7.800;2022-11-30T05:24:23;99805.81;;;8.12;nan
63556;BME280;49700;48.072;7.800;2022-11-30T05:26:49;99804.06;;;8.13;nan
63556;BME280;49700;48.072;7.800;2022-11-30T05:29:14;99807.53;;;8.13;nan
63556;BME280;49700;48.072;7.800;2022-11-30T05:31:40;99800.41;;;8.15;nan
63556;BME280;49700;48.072;7.800;2022-11-30T05:34:05;99803.81;;;8.17;nan
63556;BME280;49700;48.072;7.800;2022-11-30T05:36:31;99805.53;;;8.18;nan
63556;BME280;49700;48.072;7.800;2022-11-30T05:38:56;99803.75;;;8.19;nan
63556;BME280;49700;48.072;7.800;2022-11-30T05:41:21;99809.75;;;8.21;nan
63556;BME280;49700;48.072;7.800;2022-11-30T05:43:47;99807.97;;;8.22;nan
63556;BME280;49700;48.072;7.800;2022-11-30T05:46:12;99805.44;;;8.20;nan
63556;BME280;49700;48.072;7.800;2022-11-30T05:48:38;99806.28;;;8.20;nan
63556;BME280;49700;48.072;7.800;2022-11-30T05:51:12;99793.97;;;8.23;nan
63556;BME280;49700;48.072;7.800;2022-11-30T05:53:39;99803.59;;;8.22;nan
63556;BME280;49700;48.072;7.800;2022-11-30T05:56:08;99801.81;;;8.23;nan
63556;BME280;49700;48.072;7.800;2022-11-30T05:58:34;99802.59;;;8.25;nan
63556;BME280;49700;48.072;7.800;2022-11-30T06:01:00;99800.75;;;8.27;nan
63556;BME280;49700;48.072;7.800;2022-11-30T06:03:27;99801.59;;;8.27;nan
63556;BME280;49700;48.072;7.800;2022-11-30T06:05:53;99791.97;;;8.28;nan
63556;BME280;49700;48.072;7.800;2022-11-30T06:08:19;99811.97;;;8.29;nan
63556;BME280;49700;48.072;7.800;2022-11-30T06:10:44;99797.19;;;8.28;nan
63556;BME280;49700;48.072;7.800;2022-11-30T06:13:10;99800.81;;;8.25;nan
63556;BME280;49700;48.072;7.800;2022-11-30T06:15:37;99799.13;;;8.24;nan
63556;BME280;49700;48.072;7.800;2022-11-30T06:18:03;99790.44;;;8.24;nan
63556;BME280;49700;48.072;7.800;2022-11-30T06:20:29;99793.91;;;8.24;nan
63556;BME280;49700;48.072;7.800;2022-11-30T06:22:54;99797.34;;;8.25;nan
63556;BME280;49700;48.072;7.800;2022-11-30T06:25:20;99798.34;;;8.22;nan
63556;BME280;49700;48.072;7.800;2022-11-30T06:27:45;99795.81;;;8.20;nan
63556;BME280;49700;48.072;7.800;2022-11-30T06:30:11;99788.81;;;8.21;nan
63556;BME280;49700;48.072;7.800;2022-11-30T06:32:37;99789.66;;;8.22;nan
63556;BME280;49700;48.072;7.800;2022-11-30T06:35:02;99793.81;;;8.26;nan
63556;BME280;49700;48.072;7.800;2022-11-30T06:37:28;99790.50;;;8.22;nan
63556;BME280;49700;48.072;7.800;2022-11-30T06:39:53;99793.28;;;8.19;nan
63556;BME280;49700;48.072;7.800;2022-11-30T06:42:19;99793.34;;;8.17;nan
63556;BME280;49700;48.072;7.800;2022-11-30T06:44:44;99803.81;;;8.17;nan
63556;BME280;49700;48.072;7.800;2022-11-30T06:47:10;99801.13;;;8.19;nan
63556;BME280;49700;48.072;7.800;2022-11-30T06:49:35;99798.53;;;8.19;nan
63556;BME280;49700;48.072;7.800;2022-11-30T06:52:01;99800.34;;;8.17;nan
63556;BME280;49700;48.072;7.800;2022-11-30T06:54:26;99799.59;;;8.15;nan
63556;BME280;49700;48.072;7.800;2022-11-30T06:56:51;99797.13;;;8.12;nan
63556;BME280;49700;48.072;7.800;2022-11-30T06:59:17;99798.91;;;8.11;nan
63556;BME280;49700;48.072;7.800;2022-11-30T07:01:42;99795.50;;;8.09;nan
63556;BME280;49700;48.072;7.800;2022-11-30T07:04:08;99800.75;;;8.09;nan
63556;BME280;49700;48.072;7.800;2022-11-30T07:06:33;99798.97;;;8.10;nan
63556;BME280;49700;48.072;7.800;2022-11-30T07:08:59;99798.13;;;8.09;nan
63556;BME280;49700;48.072;7.800;2022-11-30T07:11:24;99797.22;;;8.10;nan
63556;BME280;49700;48.072;7.800;2022-11-30T07:13:49;99807.53;;;8.13;nan
63556;BME280;49700;48.072;7.800;2022-11-30T07:16:15;99803.97;;;8.14;nan
63556;BME280;49700;48.072;7.800;2022-11-30T07:18:40;99815.22;;;8.16;nan
63556;BME280;49700;48.072;7.800;2022-11-30T07:21:06;99809.88;;;8.18;nan
63556;BME280;49700;48.072;7.800;2022-11-30T07:23:32;99810.59;;;8.22;nan
63556;BME280;49700;48.072;7.800;2022-11-30T07:26:16;99813.06;;;8.25;nan
63556;BME280;49700;48.072;7.800;2022-11-30T07:28:43;99814.59;;;8.29;nan
63556;BME280;49700;48.072;7.800;2022-11-30T07:33:40;99818.13;;;8.28;nan
63556;BME280;49700;48.072;7.800;2022-11-30T07:36:06;99811.13;;;8.28;nan
63556;BME280;49700;48.072;7.800;2022-11-30T07:38:33;99815.50;;;8.28;nan
63556;BME280;49700;48.072;7.800;2022-11-30T07:40:58;99814.75;;;8.26;nan
63556;BME280;49700;48.072;7.800;2022-11-30T07:43:24;99817.28;;;8.27;nan
63556;BME280;49700;48.072;7.800;2022-11-30T07:45:52;99817.19;;;8.29;nan
63556;BME280;49700;48.072;7.800;2022-11-30T07:48:18;99821.59;;;8.28;nan
63556;BME280;49700;48.072;7.800;2022-11-30T07:50:45;99812.06;;;8.27;nan
63556;BME280;49700;48.072;7.800;2022-11-30T07:53:10;99812.91;;;8.28;nan
63556;BME280;49700;48.072;7.800;2022-11-30T07:55:36;99813.69;;;8.30;nan
63556;BME280;49700;48.072;7.800;2022-11-30T07:58:01;99822.38;;;8.30;nan
63556;BME280;49700;48.072;7.800;2022-11-30T08:00:26;99829.38;;;8.30;nan
63556;BME280;49700;48.072;7.800;2022-11-30T08:02:52;99827.66;;;8.29;nan
63556;BME280;49700;48.072;7.800;2022-11-30T08:05:17;99820.69;;;8.29;nan
63556;BME280;49700;48.072;7.800;2022-11-30T08:07:43;99830.16;;;8.32;nan
63556;BME280;49700;48.072;7.800;2022-11-30T08:10:10;99824.91;;;8.32;nan
63556;BME280;49700;48.072;7.800;2022-11-30T08:12:36;99831.84;;;8.33;nan
63556;BME280;49700;48.072;7.800;2022-11-30T08:15:01;99829.13;;;8.34;nan
63556;BME280;49700;48.072;7.800;2022-11-30T08:17:26;99829.00;;;8.37;nan
63556;BME280;49700;48.072;7.800;2022-11-30T08:19:52;99824.59;;;8.38;nan
63556;BME280;49700;48.072;7.800;2022-11-30T08:22:17;99819.31;;;8.39;nan
63556;BME280;49700;48.072;7.800;2022-11-30T08:24:42;99828.06;;;8.38;nan
63556;BME280;49700;48.072;7.800;2022-11-30T08:27:08;99821.00;;;8.40;nan
63556;BME280;49700;48.072;7.800;2022-11-30T08:29:33;99828.69;;;8.44;nan
63556;BME280;49700;48.072;7.800;2022-11-30T08:31:59;99819.84;;;8.46;nan
63556;BME280;49700;48.072;7.800;2022-11-30T08:34:24;99827.59;;;8.48;nan
63556;BME280;49700;48.072;7.800;2022-11-30T08:36:51;99827.53;;;8.49;nan
63556;BME280;49700;48.072;7.800;2022-11-30T08:39:16;99825.69;;;8.51;nan
63556;BME280;49700;48.072;7.800;2022-11-30T08:41:42;99825.53;;;8.54;nan
63556;BME280;49700;48.072;7.800;2022-11-30T08:44:07;99826.22;;;8.58;nan
63556;BME280;49700;48.072;7.800;2022-11-30T08:46:33;99834.00;;;8.59;nan
63556;BME280;49700;48.072;7.800;2022-11-30T08:48:59;99835.69;;;8.60;nan
63556;BME280;49700;48.072;7.800;2022-11-30T08:51:24;99827.66;;;8.63;nan
63556;BME280;49700;48.072;7.800;2022-11-30T08:53:50;99838.75;;;8.69;nan
63556;BME280;49700;48.072;7.800;2022-11-30T08:56:17;99828.09;;;8.72;nan
63556;BME280;49700;48.072;7.800;2022-11-30T08:58:44;99842.66;;;8.77;nan
63556;BME280;49700;48.072;7.800;2022-11-30T09:01:16;99837.41;;;8.77;nan
63556;BME280;49700;48.072;7.800;2022-11-30T09:03:43;99840.81;;;8.79;nan
63556;BME280;49700;48.072;7.800;2022-11-30T09:06:26;99845.13;;;8.80;nan
63556;BME280;49700;48.072;7.800;2022-11-30T09:08:53;99838.13;;;8.81;nan
63556;BME280;49700;48.072;7.800;2022-11-30T09:11:26;99842.41;;;8.82;nan
63556;BME280;49700;48.072;7.800;2022-11-30T09:13:54;99833.78;;;8.80;nan
63556;BME280;49700;48.072;7.800;2022-11-30T09:16:20;99835.34;;;8.84;nan
63556;BME280;49700;48.072;7.800;2022-11-30T09:22:33;99841.94;;;8.91;nan
63556;BME280;49700;48.072;7.800;2022-11-30T09:24:58;99842.53;;;8.96;nan
63556;BME280;49700;48.072;7.800;2022-11-30T09:27:24;99855.50;;;8.99;nan
63556;BME280;49700;48.072;7.800;2022-11-30T09:29:54;99852.88;;;8.99;nan
63556;BME280;49700;48.072;7.800;2022-11-30T09:32:20;99854.38;;;9.03;nan
63556;BME280;49700;48.072;7.800;2022-11-30T09:34:45;99860.28;;;9.07;nan
63556;BME280;49700;48.072;7.800;2022-11-30T09:37:10;99857.59;;;9.08;nan
63556;BME280;49700;48.072;7.800;2022-11-30T09:39:36;99852.19;;;9.12;nan
63556;BME280;49700;48.072;7.800;2022-11-30T09:42:20;99851.00;;;9.17;nan
63556;BME280;49700;48.072;7.800;2022-11-30T09:45:02;99855.00;;;9.24;nan
63556;BME280;49700;48.072;7.800;2022-11-30T09:50:25;99847.34;;;9.37;nan
63556;BME280;49700;48.072;7.800;2022-11-30T09:52:57;99846.81;;;9.46;nan
63556;BME280;49700;48.072;7.800;2022-11-30T09:55:34;99847.16;;;9.56;nan
63556;BME280;49700;48.072;7.800;2022-11-30T09:58:05;99845.78;;;9.65;nan
63556;BME280;49700;48.072;7.800;2022-11-30T10:00:32;99847.22;;;9.70;nan
63556;BME280;49700;48.072;7.800;2022-11-30T10:03:02;99841.88;;;9.72;nan
63556;BME280;49700;48.072;7.800;2022-11-30T10:05:55;99841.88;;;9.72;nan
63556;BME280;49700;48.072;7.800;2022-11-30T10:08:32;99846.09;;;9.74;nan
63556;BME280;49700;48.072;7.800;2022-11-30T10:19:43;99833.72;;;9.92;nan
63556;BME280;49700;48.072;7.800;2022-11-30T10:25:28;99840.91;;;10.05;nan
63556;BME280;49700;48.072;7.800;2022-11-30T10:28:06;99840.81;;;10.06;nan
63556;BME280;49700;48.072;7.800;2022-11-30T10:30:40;99837.09;;;10.10;nan
63556;BME280;49700;48.072;7.800;2022-11-30T10:33:16;99835.13;;;10.14;nan
63556;BME280;49700;48.072;7.800;2022-11-30T10:35:53;99830.63;;;10.16;nan
63556;BME280;49700;48.072;7.800;2022-11-30T10:38:30;99826.88;;;10.20;nan
63556;BME280;49700;48.072;7.800;2022-11-30T10:40:59;99814.44;;;10.24;nan
63556;BME280;49700;48.072;7.800;2022-11-30T10:43:47;99820.19;;;10.30;nan
63556;BME280;49700;48.072;7.800;2022-11-30T10:46:21;99813.66;;;10.37;nan
63556;BME280;49700;48.072;7.800;2022-11-30T10:48:55;99818.53;;;10.44;nan
63556;BME280;49700;48.072;7.800;2022-11-30T10:51:23;99818.25;;;10.48;nan
63556;BME280;49700;48.072;7.800;2022-11-30T10:53:50;99814.41;;;10.54;nan
63556;BME280;49700;48.072;7.800;2022-11-30T10:56:15;99809.94;;;10.56;nan
63556;BME280;49700;48.072;7.800;2022-11-30T10:58:59;99803.53;;;10.60;nan
63556;BME280;49700;48.072;7.800;2022-11-30T11:01:33;99796.50;;;10.60;nan
63556;BME280;49700;48.072;7.800;2022-11-30T11:06:44;99804.69;;;10.56;nan
63556;BME280;49700;48.072;7.800;2022-11-30T11:11:56;99798.47;;;10.43;nan
63556;BME280;49700;48.072;7.800;2022-11-30T11:14:24;99800.22;;;10.42;nan
63556;BME280;49700;48.072;7.800;2022-11-30T11:19:40;99797.34;;;10.47;nan
63556;BME280;49700;48.072;7.800;2022-11-30T11:22:16;99797.25;;;10.48;nan
63556;BME280;49700;48.072;7.800;2022-11-30T11:24:42;99793.59;;;10.51;nan
63556;BME280;49700;48.072;7.800;2022-11-30T11:27:28;99795.91;;;10.41;nan
63556;BME280;49700;48.072;7.800;2022-11-30T11:30:09;99792.06;;;10.47;nan
63556;BME280;49700;48.072;7.800;2022-11-30T11:32:36;99795.84;;;10.57;nan
63556;BME280;49700;48.072;7.800;2022-11-30T11:35:02;99796.22;;;10.65;nan
63556;BME280;49700;48.072;7.800;2022-11-30T11:37:30;99792.28;;;10.72;nan
63556;BME280;49700;48.072;7.800;2022-11-30T11:40:13;99792.66;;;10.80;nan
63556;BME280;49700;48.072;7.800;2022-11-30T11:42:48;99785.69;;;10.79;nan
63556;BME280;49700;48.072;7.800;2022-11-30T11:45:22;99788.34;;;10.79;nan
63556;BME280;49700;48.072;7.800;2022-11-30T11:48:04;99787.22;;;10.83;nan
63556;BME280;49700;48.072;7.800;2022-11-30T11:50:33;99789.16;;;10.80;nan
63556;BME280;49700;48.072;7.800;2022-11-30T11:55:50;99781.75;;;10.58;nan
63556;BME280;49700;48.072;7.800;2022-11-30T11:58:23;99776.06;;;10.51;nan
63556;BME280;49700;48.072;7.800;2022-11-30T12:00:51;99771.91;;;10.47;nan
63556;BME280;49700;48.072;7.800;2022-11-30T12:03:28;99771.19;;;10.45;nan
63556;BME280;49700;48.072;7.800;2022-11-30T12:06:00;99772.66;;;10.49;nan
63556;BME280;49700;48.072;7.800;2022-11-30T12:11:12;99777.06;;;10.63;nan
63556;BME280;49700;48.072;7.800;2022-11-30T12:13:41;99773.63;;;10.62;nan
63556;BME280;49700;48.072;7.800;2022-11-30T12:18:48;99780.06;;;10.71;nan
63556;BME280;49700;48.072;7.800;2022-11-30T12:27:21;99770.88;;;10.78;nan
63556;BME280;49700;48.072;7.800;2022-11-30T12:38:16;99765.78;;;11.04;nan
63556;BME280;49700;48.072;7.800;2022-11-30T12:41:06;99772.75;;;11.05;nan
63556;BME280;49700;48.072;7.800;2022-11-30T12:43:48;99764.53;;;11.10;nan
63556;BME280;49700;48.072;7.800;2022-11-30T12:46:26;99768.97;;;11.09;nan
63556;BME280;49700;48.072;7.800;2022-11-30T12:51:39;99766.31;;;11.23;nan
63556;BME280;49700;48.072;7.800;2022-11-30T12:54:22;99768.56;;;11.29;nan
63556;BME280;49700;48.072;7.800;2022-11-30T12:57:03;99764.22;;;11.28;nan
63556;BME280;49700;48.072;7.800;2022-11-30T13:00:05;99763.03;;;11.20;nan
63556;BME280;49700;48.072;7.800;2022-11-30T13:05:14;99763.75;;;10.95;nan
63556;BME280;49700;48.072;7.800;2022-11-30T13:12:59;99769.38;;;10.74;nan
63556;BME280;49700;48.072;7.800;2022-11-30T13:15:27;99763.75;;;10.80;nan
63556;BME280;49700;48.072;7.800;2022-11-30T13:17:54;99764.88;;;10.76;nan
63556;BME280;49700;48.072;7.800;2022-11-30T13:20:39;99767.13;;;10.82;nan
63556;BME280;49700;48.072;7.800;2022-11-30T13:23:26;99768.00;;;10.83;nan
63556;BME280;49700;48.072;7.800;2022-11-30T13:34:26;99764.50;;;10.68;nan
63556;BME280;49700;48.072;7.800;2022-11-30T13:37:07;99770.03;;;10.63;nan
63556;BME280;49700;48.072;7.800;2022-11-30T13:39:53;99768.81;;;10.55;nan
63556;BME280;49700;48.072;7.800;2022-11-30T13:44:50;99761.59;;;10.44;nan
63556;BME280;49700;48.072;7.800;2022-11-30T13:47:29;99767.31;;;10.36;nan
63556;BME280;49700;48.072;7.800;2022-11-30T13:49:58;99767.41;;;10.35;nan
63556;BME280;49700;48.072;7.800;2022-11-30T13:55:59;99766.84;;;10.44;nan
63556;BME280;49700;48.072;7.800;2022-11-30T13:58:26;99764.72;;;10.51;nan
63556;BME280;49700;48.072;7.800;2022-11-30T14:01:22;99770.41;;;10.57;nan
63556;BME280;49700;48.072;7.800;2022-11-30T14:11:44;99765.47;;;10.67;nan
63556;BME280;49700;48.072;7.800;2022-11-30T14:14:42;99774.19;;;10.68;nan
63556;BME280;49700;48.072;7.800;2022-11-30T14:17:22;99776.03;;;10.66;nan
63556;BME280;49700;48.072;7.800;2022-11-30T14:19:51;99778.03;;;10.62;nan
63556;BME280;49700;48.072;7.800;2022-11-30T14:22:17;99781.69;;;10.59;nan
63556;BME280;49700;48.072;7.800;2022-11-30T14:24:45;99775.66;;;10.57;nan
63556;BME280;49700;48.072;7.800;2022-11-30T14:27:17;99771.56;;;10.53;nan
63556;BME280;49700;48.072;7.800;2022-11-30T14:29:47;99776.31;;;10.47;nan
63556;BME280;49700;48.072;7.800;2022-11-30T14:32:43;99775.00;;;10.39;nan
63556;BME280;49700;48.072;7.800;2022-11-30T14:35:16;99780.72;;;10.32;nan
63556;BME280;49700;48.072;7.800;2022-11-30T14:37:53;99779.38;;;10.25;nan
63556;BME280;49700;48.072;7.800;2022-11-30T14:40:21;99787.50;;;10.20;nan
63556;BME280;49700;48.072;7.800;2022-11-30T14:42:54;99788.63;;;10.16;nan
63556;BME280;49700;48.072;7.800;2022-11-30T14:45:30;99784.47;;;10.12;nan
63556;BME280;49700;48.072;7.800;2022-11-30T14:50:34;99783.19;;;10.05;nan
63556;BME280;49700;48.072;7.800;2022-11-30T14:53:16;99785.94;;;10.02;nan
63556;BME280;49700;48.072;7.800;2022-11-30T14:59:28;99782.94;;;9.93;nan
63556;BME280;49700;48.072;7.800;2022-11-30T15:01:23;99785.91;;;9.87;nan
63556;BME280;49700;48.072;7.800;2022-11-30T15:03:50;99792.38;;;9.82;nan
63556;BME280;49700;48.072;7.800;2022-11-30T15:06:19;99794.41;;;9.77;nan
63556;BME280;49700;48.072;7.800;2022-11-30T15:08:50;99792.16;;;9.70;nan
63556;BME280;49700;48.072;7.800;2022-11-30T15:11:16;99784.72;;;9.63;nan
63556;BME280;49700;48.072;7.800;2022-11-30T15:13:45;99789.28;;;9.59;nan
63556;BME280;49700;48.072;7.800;2022-11-30T15:18:50;99789.63;;;9.53;nan
63556;BME280;49700;48.072;7.800;2022-11-30T15:21:20;99788.19;;;9.47;nan
63556;BME280;49700;48.072;7.800;2022-11-30T15:23:47;99789.97;;;9.47;nan
63556;BME280;49700;48.072;7.800;2022-11-30T15:26:27;99793.78;;;9.41;nan
63556;BME280;49700;48.072;7.800;2022-11-30T15:28:57;99787.78;;;9.39;nan